YMAV/AVV METAR and TAF weather

Enter ICAO airport designator
Station Type Date Time Source
YMAV METAR 2022/06/27 07:30 UTC NOAA

YMAV 270730Z AUTO 29003KT 9999 // NCD 10/06 Q1032 RF00.0/000.0


Station Type Date Time Source
YMAV Decoded METAR 2022/06/27 07:30 UTC NOAA

Avalon, Avalon Airport, Australia (YMAV) 38-02S 144-29E
Jun 27, 2022 - 03:30 AM EDT / 2022.06.27 0730 UTC
Wind: from the WNW (290 degrees) at 3 MPH (3 KT):0
Visibility: greater than 7 mile(s):0
Temperature: 50 F (10 C)
Dew Point: 42 F (6 C)
Relative Humidity: 76%
Pressure (altimeter): 30.47 in. Hg (1032 hPa)
ob: YMAV 270730Z AUTO 29003KT 9999 // NCD 10/06 Q1032 RF00.0/000.0
cycle: 7

Station Type Date Time Source
YMAV TAF 2022/06/27 06:36 UTC NOAA

TAF YMAV 270526Z 2706/2806 26010KT 9999 SCT040
FM270900 34006KT 9999 SCT040
FM280000 35008KT CAVOK

Example: see airport list